sensor_id;sensor_type;location;lat;lon;timestamp;temperature;humidity
14670;DHT22;7423;48.722;9.350;2023-01-15T00:02:05;14.10;99.90
14670;DHT22;7423;48.722;9.350;2023-01-15T00:04:33;14.10;99.90
14670;DHT22;7423;48.722;9.350;2023-01-15T00:06:59;13.90;99.90
14670;DHT22;7423;48.722;9.350;2023-01-15T00:09:26;14.00;99.90
14670;DHT22;7423;48.722;9.350;2023-01-15T00:11:53;14.00;99.90
14670;DHT22;7423;48.722;9.350;2023-01-15T00:14:20;14.00;99.90
14670;DHT22;7423;48.722;9.350;2023-01-15T00:16:51;14.10;99.90
14670;DHT22;7423;48.722;9.350;2023-01-15T00:19:18;14.00;99.90
14670;DHT22;7423;48.722;9.350;2023-01-15T00:21:45;14.00;99.90
14670;DHT22;7423;48.722;9.350;2023-01-15T00:24:12;14.10;99.90
14670;DHT22;7423;48.722;9.350;2023-01-15T00:26:57;14.10;99.90
14670;DHT22;7423;48.722;9.350;2023-01-15T00:29:43;14.10;99.90
14670;DHT22;7423;48.722;9.350;2023-01-15T00:32:10;14.00;99.90
14670;DHT22;7423;48.722;9.350;2023-01-15T00:34:37;13.80;99.90
14670;DHT22;7423;48.722;9.350;2023-01-15T00:37:04;13.90;99.90
14670;DHT22;7423;48.722;9.350;2023-01-15T00:39:30;13.80;99.90
14670;DHT22;7423;48.722;9.350;2023-01-15T00:41:58;13.90;99.90
14670;DHT22;7423;48.722;9.350;2023-01-15T00:44:25;14.10;99.90
14670;DHT22;7423;48.722;9.350;2023-01-15T00:46:52;14.00;99.90
14670;DHT22;7423;48.722;9.350;2023-01-15T00:49:19;13.90;99.90
14670;DHT22;7423;48.722;9.350;2023-01-15T00:51:46;13.80;99.90
14670;DHT22;7423;48.722;9.350;2023-01-15T00:54:15;13.90;99.90
14670;DHT22;7423;48.722;9.350;2023-01-15T00:56:42;14.00;99.90
14670;DHT22;7423;48.722;9.350;2023-01-15T00:59:09;14.00;99.90
14670;DHT22;7423;48.722;9.350;2023-01-15T01:01:36;14.00;99.90
14670;DHT22;7423;48.722;9.350;2023-01-15T01:04:03;14.10;99.90
14670;DHT22;7423;48.722;9.350;2023-01-15T01:06:30;14.10;99.90
14670;DHT22;7423;48.722;9.350;2023-01-15T01:08:57;14.00;99.90
14670;DHT22;7423;48.722;9.350;2023-01-15T01:11:24;13.90;99.90
14670;DHT22;7423;48.722;9.350;2023-01-15T01:13:55;14.00;99.90
14670;DHT22;7423;48.722;9.350;2023-01-15T01:16:26;13.80;99.90
14670;DHT22;7423;48.722;9.350;2023-01-15T01:19:10;13.90;99.90
14670;DHT22;7423;48.722;9.350;2023-01-15T01:21:40;13.70;99.90
14670;DHT22;7423;48.722;9.350;2023-01-15T01:24:10;13.80;99.90
14670;DHT22;7423;48.722;9.350;2023-01-15T01:26:38;13.90;99.90
14670;DHT22;7423;48.722;9.350;2023-01-15T01:29:05;13.80;99.90
14670;DHT22;7423;48.722;9.350;2023-01-15T01:31:32;14.00;99.90
14670;DHT22;7423;48.722;9.350;2023-01-15T01:33:59;14.20;99.90
14670;DHT22;7423;48.722;9.350;2023-01-15T01:36:31;14.00;99.90
14670;DHT22;7423;48.722;9.350;2023-01-15T01:39:00;14.20;99.90
14670;DHT22;7423;48.722;9.350;2023-01-15T01:41:27;14.20;99.90
14670;DHT22;7423;48.722;9.350;2023-01-15T01:44:04;14.30;99.90
14670;DHT22;7423;48.722;9.350;2023-01-15T01:46:53;14.20;99.90
14670;DHT22;7423;48.722;9.350;2023-01-15T01:49:20;14.20;99.90
14670;DHT22;7423;48.722;9.350;2023-01-15T01:51:57;14.30;99.90
14670;DHT22;7423;48.722;9.350;2023-01-15T01:54:28;14.30;99.90
14670;DHT22;7423;48.722;9.350;2023-01-15T01:56:56;14.30;99.90
14670;DHT22;7423;48.722;9.350;2023-01-15T01:59:24;14.40;99.90
14670;DHT22;7423;48.722;9.350;2023-01-15T02:01:51;14.50;99.90
14670;DHT22;7423;48.722;9.350;2023-01-15T02:04:20;14.50;99.90
14670;DHT22;7423;48.722;9.350;2023-01-15T02:06:48;14.30;99.90
14670;DHT22;7423;48.722;9.350;2023-01-15T02:09:16;14.30;99.90
14670;DHT22;7423;48.722;9.350;2023-01-15T02:11:43;14.60;99.90
14670;DHT22;7423;48.722;9.350;2023-01-15T02:14:18;14.20;99.90
14670;DHT22;7423;48.722;9.350;2023-01-15T02:16:54;14.10;99.90
14670;DHT22;7423;48.722;9.350;2023-01-15T02:25:43;14.20;99.90
14670;DHT22;7423;48.722;9.350;2023-01-15T02:28:41;14.40;99.90
14670;DHT22;7423;48.722;9.350;2023-01-15T02:31:27;14.40;99.90
14670;DHT22;7423;48.722;9.350;2023-01-15T02:34:13;14.20;99.90
14670;DHT22;7423;48.722;9.350;2023-01-15T02:36:47;14.20;99.90
14670;DHT22;7423;48.722;9.350;2023-01-15T02:39:20;14.20;99.90
14670;DHT22;7423;48.722;9.350;2023-01-15T02:41:50;14.40;99.90
14670;DHT22;7423;48.722;9.350;2023-01-15T02:44:20;14.40;99.90
14670;DHT22;7423;48.722;9.350;2023-01-15T02:46:48;14.10;99.90
14670;DHT22;7423;48.722;9.350;2023-01-15T02:49:18;14.10;99.90
14670;DHT22;7423;48.722;9.350;2023-01-15T02:51:52;14.00;99.90
14670;DHT22;7423;48.722;9.350;2023-01-15T02:54:24;14.10;99.90
14670;DHT22;7423;48.722;9.350;2023-01-15T02:56:56;14.30;99.90
14670;DHT22;7423;48.722;9.350;2023-01-15T02:59:29;14.20;99.90
14670;DHT22;7423;48.722;9.350;2023-01-15T03:02:02;14.20;99.90
14670;DHT22;7423;48.722;9.350;2023-01-15T03:07:25;13.90;99.90
14670;DHT22;7423;48.722;9.350;2023-01-15T03:09:58;14.20;99.90
14670;DHT22;7423;48.722;9.350;2023-01-15T03:12:26;14.20;99.90
14670;DHT22;7423;48.722;9.350;2023-01-15T03:15:03;14.40;99.90
14670;DHT22;7423;48.722;9.350;2023-01-15T03:17:39;14.50;99.90
14670;DHT22;7423;48.722;9.350;2023-01-15T03:20:19;14.60;99.90
14670;DHT22;7423;48.722;9.350;2023-01-15T03:22:53;14.50;99.90
14670;DHT22;7423;48.722;9.350;2023-01-15T03:25:25;14.50;99.90
14670;DHT22;7423;48.722;9.350;2023-01-15T03:27:58;14.40;99.90
14670;DHT22;7423;48.722;9.350;2023-01-15T03:30:27;13.80;99.90
14670;DHT22;7423;48.722;9.350;2023-01-15T03:32:54;13.90;99.90
14670;DHT22;7423;48.722;9.350;2023-01-15T03:38:21;14.30;99.90
14670;DHT22;7423;48.722;9.350;2023-01-15T03:44:47;14.30;99.90
14670;DHT22;7423;48.722;9.350;2023-01-15T03:47:11;14.10;99.90
14670;DHT22;7423;48.722;9.350;2023-01-15T03:50:35;14.20;99.90
14670;DHT22;7423;48.722;9.350;2023-01-15T03:56:19;14.50;99.90
14670;DHT22;7423;48.722;9.350;2023-01-15T03:58:55;14.30;99.90
14670;DHT22;7423;48.722;9.350;2023-01-15T04:01:33;14.10;99.90
14670;DHT22;7423;48.722;9.350;2023-01-15T04:04:04;14.10;99.90
14670;DHT22;7423;48.722;9.350;2023-01-15T04:06:34;14.30;99.90
14670;DHT22;7423;48.722;9.350;2023-01-15T04:09:05;14.40;99.90
14670;DHT22;7423;48.722;9.350;2023-01-15T04:11:33;14.40;99.90
14670;DHT22;7423;48.722;9.350;2023-01-15T04:14:00;14.50;99.90
14670;DHT22;7423;48.722;9.350;2023-01-15T04:16:28;14.30;99.90
14670;DHT22;7423;48.722;9.350;2023-01-15T04:18:57;14.30;99.90
14670;DHT22;7423;48.722;9.350;2023-01-15T04:21:24;14.30;99.90
14670;DHT22;7423;48.722;9.350;2023-01-15T04:23:51;14.10;99.90
14670;DHT22;7423;48.722;9.350;2023-01-15T04:26:18;13.90;99.90
14670;DHT22;7423;48.722;9.350;2023-01-15T04:28:45;14.00;99.90
14670;DHT22;7423;48.722;9.350;2023-01-15T04:31:12;14.10;99.90
14670;DHT22;7423;48.722;9.350;2023-01-15T04:33:39;14.20;99.90
14670;DHT22;7423;48.722;9.350;2023-01-15T04:36:07;14.20;99.90
14670;DHT22;7423;48.722;9.350;2023-01-15T04:38:38;14.10;99.90
14670;DHT22;7423;48.722;9.350;2023-01-15T04:41:05;13.90;99.90
14670;DHT22;7423;48.722;9.350;2023-01-15T04:43:50;13.70;99.90
14670;DHT22;7423;48.722;9.350;2023-01-15T04:46:44;13.90;99.90
14670;DHT22;7423;48.722;9.350;2023-01-15T04:49:13;14.00;99.90
14670;DHT22;7423;48.722;9.350;2023-01-15T04:51:42;13.70;99.90
14670;DHT22;7423;48.722;9.350;2023-01-15T04:54:10;13.90;99.90
14670;DHT22;7423;48.722;9.350;2023-01-15T04:56:42;14.20;99.90
14670;DHT22;7423;48.722;9.350;2023-01-15T04:59:10;13.90;99.90
14670;DHT22;7423;48.722;9.350;2023-01-15T05:01:38;13.90;99.90
14670;DHT22;7423;48.722;9.350;2023-01-15T05:04:08;14.00;99.90
14670;DHT22;7423;48.722;9.350;2023-01-15T05:06:35;14.00;99.90
14670;DHT22;7423;48.722;9.350;2023-01-15T05:09:03;14.00;99.90
14670;DHT22;7423;48.722;9.350;2023-01-15T05:11:33;14.20;99.90
14670;DHT22;7423;48.722;9.350;2023-01-15T05:14:01;14.20;99.90
14670;DHT22;7423;48.722;9.350;2023-01-15T05:16:28;13.90;99.90
14670;DHT22;7423;48.722;9.350;2023-01-15T05:18:59;13.70;99.90
14670;DHT22;7423;48.722;9.350;2023-01-15T05:21:29;13.70;99.90
14670;DHT22;7423;48.722;9.350;2023-01-15T05:23:59;13.90;99.90
14670;DHT22;7423;48.722;9.350;2023-01-15T05:26:29;13.80;99.90
14670;DHT22;7423;48.722;9.350;2023-01-15T05:28:58;13.90;99.90
14670;DHT22;7423;48.722;9.350;2023-01-15T05:31:26;14.00;99.90
14670;DHT22;7423;48.722;9.350;2023-01-15T05:33:54;13.80;99.90
14670;DHT22;7423;48.722;9.350;2023-01-15T05:36:30;13.50;99.90
14670;DHT22;7423;48.722;9.350;2023-01-15T05:38:58;13.80;99.90
14670;DHT22;7423;48.722;9.350;2023-01-15T05:41:28;14.00;99.90
14670;DHT22;7423;48.722;9.350;2023-01-15T05:44:26;14.10;99.90
14670;DHT22;7423;48.722;9.350;2023-01-15T05:46:59;14.30;99.90
14670;DHT22;7423;48.722;9.350;2023-01-15T05:49:32;14.10;99.90
14670;DHT22;7423;48.722;9.350;2023-01-15T05:52:00;13.70;99.90
14670;DHT22;7423;48.722;9.350;2023-01-15T05:54:30;13.50;99.90
14670;DHT22;7423;48.722;9.350;2023-01-15T05:56:58;13.10;99.90
14670;DHT22;7423;48.722;9.350;2023-01-15T05:59:27;13.10;99.90
14670;DHT22;7423;48.722;9.350;2023-01-15T06:01:55;13.10;99.90
14670;DHT22;7423;48.722;9.350;2023-01-15T06:04:23;13.20;99.90
14670;DHT22;7423;48.722;9.350;2023-01-15T06:06:52;13.30;99.90
14670;DHT22;7423;48.722;9.350;2023-01-15T06:09:20;13.40;99.90
14670;DHT22;7423;48.722;9.350;2023-01-15T06:11:48;13.30;99.90
14670;DHT22;7423;48.722;9.350;2023-01-15T06:14:16;13.20;99.90
14670;DHT22;7423;48.722;9.350;2023-01-15T06:16:43;13.00;99.90
14670;DHT22;7423;48.722;9.350;2023-01-15T06:19:11;12.70;99.90
14670;DHT22;7423;48.722;9.350;2023-01-15T06:21:38;12.80;99.90
14670;DHT22;7423;48.722;9.350;2023-01-15T06:24:06;12.80;99.90
14670;DHT22;7423;48.722;9.350;2023-01-15T06:26:33;12.70;99.90
14670;DHT22;7423;48.722;9.350;2023-01-15T06:29:00;12.80;99.90
14670;DHT22;7423;48.722;9.350;2023-01-15T06:31:26;12.90;99.90
14670;DHT22;7423;48.722;9.350;2023-01-15T06:33:54;12.90;99.90
14670;DHT22;7423;48.722;9.350;2023-01-15T06:36:24;12.90;99.90
14670;DHT22;7423;48.722;9.350;2023-01-15T06:38:52;13.00;99.90
14670;DHT22;7423;48.722;9.350;2023-01-15T06:41:21;13.00;99.90
14670;DHT22;7423;48.722;9.350;2023-01-15T06:44:13;12.90;99.90
14670;DHT22;7423;48.722;9.350;2023-01-15T06:47:14;12.90;99.90
14670;DHT22;7423;48.722;9.350;2023-01-15T06:49:47;12.80;99.90
14670;DHT22;7423;48.722;9.350;2023-01-15T06:52:22;12.60;99.90
14670;DHT22;7423;48.722;9.350;2023-01-15T06:54:51;12.40;99.90
14670;DHT22;7423;48.722;9.350;2023-01-15T06:57:18;12.30;99.90
14670;DHT22;7423;48.722;9.350;2023-01-15T06:59:45;12.30;99.90
14670;DHT22;7423;48.722;9.350;2023-01-15T07:02:13;12.10;99.90
14670;DHT22;7423;48.722;9.350;2023-01-15T07:04:40;11.80;99.90
14670;DHT22;7423;48.722;9.350;2023-01-15T07:07:06;11.60;99.90
14670;DHT22;7423;48.722;9.350;2023-01-15T07:09:33;11.50;99.90
14670;DHT22;7423;48.722;9.350;2023-01-15T07:12:00;11.70;99.90
14670;DHT22;7423;48.722;9.350;2023-01-15T07:14:27;11.60;99.90
14670;DHT22;7423;48.722;9.350;2023-01-15T07:16:54;11.50;99.90
14670;DHT22;7423;48.722;9.350;2023-01-15T07:19:21;11.50;99.90
14670;DHT22;7423;48.722;9.350;2023-01-15T07:21:48;11.40;99.90
14670;DHT22;7423;48.722;9.350;2023-01-15T07:24:16;11.50;99.90
14670;DHT22;7423;48.722;9.350;2023-01-15T07:26:43;11.40;99.90
14670;DHT22;7423;48.722;9.350;2023-01-15T07:29:11;11.50;99.90
14670;DHT22;7423;48.722;9.350;2023-01-15T07:31:39;11.40;99.90
14670;DHT22;7423;48.722;9.350;2023-01-15T07:34:07;11.30;99.90
14670;DHT22;7423;48.722;9.350;2023-01-15T07:36:34;11.20;99.90
14670;DHT22;7423;48.722;9.350;2023-01-15T07:39:05;11.10;99.90
14670;DHT22;7423;48.722;9.350;2023-01-15T07:41:33;11.00;99.90
14670;DHT22;7423;48.722;9.350;2023-01-15T07:44:18;11.00;99.90
14670;DHT22;7423;48.722;9.350;2023-01-15T07:47:14;11.00;99.90
14670;DHT22;7423;48.722;9.350;2023-01-15T07:50:04;10.80;99.90
14670;DHT22;7423;48.722;9.350;2023-01-15T07:52:32;10.90;99.90
14670;DHT22;7423;48.722;9.350;2023-01-15T07:54:59;10.90;99.90
14670;DHT22;7423;48.722;9.350;2023-01-15T07:57:26;10.90;99.90
14670;DHT22;7423;48.722;9.350;2023-01-15T07:59:53;11.00;99.90
14670;DHT22;7423;48.722;9.350;2023-01-15T08:02:20;11.10;99.90
14670;DHT22;7423;48.722;9.350;2023-01-15T08:04:47;11.10;99.90
14670;DHT22;7423;48.722;9.350;2023-01-15T08:07:14;11.00;99.90
14670;DHT22;7423;48.722;9.350;2023-01-15T08:09:41;11.00;99.90
14670;DHT22;7423;48.722;9.350;2023-01-15T08:12:10;10.90;99.90
14670;DHT22;7423;48.722;9.350;2023-01-15T08:14:56;10.90;99.90
14670;DHT22;7423;48.722;9.350;2023-01-15T08:17:50;10.80;99.90
14670;DHT22;7423;48.722;9.350;2023-01-15T08:20:19;10.90;99.90
14670;DHT22;7423;48.722;9.350;2023-01-15T08:22:47;11.00;99.90
14670;DHT22;7423;48.722;9.350;2023-01-15T08:25:19;11.10;99.90
14670;DHT22;7423;48.722;9.350;2023-01-15T08:27:48;11.00;99.90
14670;DHT22;7423;48.722;9.350;2023-01-15T08:30:20;11.00;99.90
14670;DHT22;7423;48.722;9.350;2023-01-15T08:32:50;11.10;99.90
14670;DHT22;7423;48.722;9.350;2023-01-15T08:35:17;11.10;99.90
14670;DHT22;7423;48.722;9.350;2023-01-15T08:37:44;11.00;99.90
14670;DHT22;7423;48.722;9.350;2023-01-15T08:40:11;10.90;99.90
14670;DHT22;7423;48.722;9.350;2023-01-15T08:42:38;10.90;99.90
14670;DHT22;7423;48.722;9.350;2023-01-15T08:45:06;10.90;99.90
14670;DHT22;7423;48.722;9.350;2023-01-15T08:47:34;10.80;99.90
14670;DHT22;7423;48.722;9.350;2023-01-15T08:50:00;10.80;99.90
14670;DHT22;7423;48.722;9.350;2023-01-15T08:52:27;10.90;99.90
14670;DHT22;7423;48.722;9.350;2023-01-15T08:54:54;10.90;99.90
14670;DHT22;7423;48.722;9.350;2023-01-15T08:57:21;10.90;99.90
14670;DHT22;7423;48.722;9.350;2023-01-15T08:59:48;10.90;99.90
14670;DHT22;7423;48.722;9.350;2023-01-15T09:02:15;10.90;99.90
14670;DHT22;7423;48.722;9.350;2023-01-15T09:04:43;11.00;99.90
14670;DHT22;7423;48.722;9.350;2023-01-15T09:07:10;11.00;99.90
14670;DHT22;7423;48.722;9.350;2023-01-15T09:09:38;11.00;99.90
14670;DHT22;7423;48.722;9.350;2023-01-15T09:12:05;11.00;99.90
14670;DHT22;7423;48.722;9.350;2023-01-15T09:14:31;11.00;99.90
14670;DHT22;7423;48.722;9.350;2023-01-15T09:17:18;10.90;99.90
14670;DHT22;7423;48.722;9.350;2023-01-15T09:19:45;10.80;99.90
14670;DHT22;7423;48.722;9.350;2023-01-15T09:22:12;10.70;99.90
14670;DHT22;7423;48.722;9.350;2023-01-15T09:24:39;10.70;99.90
14670;DHT22;7423;48.722;9.350;2023-01-15T09:27:05;10.60;99.90
14670;DHT22;7423;48.722;9.350;2023-01-15T09:29:32;10.60;99.90
14670;DHT22;7423;48.722;9.350;2023-01-15T09:31:59;10.50;99.90
14670;DHT22;7423;48.722;9.350;2023-01-15T09:34:26;10.60;99.90
14670;DHT22;7423;48.722;9.350;2023-01-15T09:36:53;10.70;99.90
14670;DHT22;7423;48.722;9.350;2023-01-15T09:39:20;10.60;99.90
14670;DHT22;7423;48.722;9.350;2023-01-15T09:41:50;10.60;99.90
14670;DHT22;7423;48.722;9.350;2023-01-15T09:48:06;10.70;99.90
14670;DHT22;7423;48.722;9.350;2023-01-15T09:50:56;10.70;99.90
14670;DHT22;7423;48.722;9.350;2023-01-15T09:56:24;10.60;99.90
14670;DHT22;7423;48.722;9.350;2023-01-15T09:58:55;10.70;99.90
14670;DHT22;7423;48.722;9.350;2023-01-15T10:01:28;10.70;99.90
14670;DHT22;7423;48.722;9.350;2023-01-15T10:04:01;10.70;99.90
14670;DHT22;7423;48.722;9.350;2023-01-15T10:06:44;10.80;99.90
14670;DHT22;7423;48.722;9.350;2023-01-15T10:09:26;10.80;99.90
14670;DHT22;7423;48.722;9.350;2023-01-15T10:12:25;10.70;99.90
14670;DHT22;7423;48.722;9.350;2023-01-15T10:15:35;10.70;99.90
14670;DHT22;7423;48.722;9.350;2023-01-15T10:18:10;10.70;99.90
14670;DHT22;7423;48.722;9.350;2023-01-15T10:26:55;10.90;99.90
14670;DHT22;7423;48.722;9.350;2023-01-15T10:29:42;10.90;99.90
14670;DHT22;7423;48.722;9.350;2023-01-15T10:32:30;10.80;99.90
14670;DHT22;7423;48.722;9.350;2023-01-15T10:35:14;10.80;99.90
14670;DHT22;7423;48.722;9.350;2023-01-15T10:38:13;10.90;99.90
14670;DHT22;7423;48.722;9.350;2023-01-15T10:46:14;10.70;99.90
14670;DHT22;7423;48.722;9.350;2023-01-15T10:48:57;10.80;99.90
14670;DHT22;7423;48.722;9.350;2023-01-15T10:51:45;10.80;99.90
14670;DHT22;7423;48.722;9.350;2023-01-15T10:54:18;10.80;99.90
14670;DHT22;7423;48.722;9.350;2023-01-15T10:56:57;10.70;99.90
14670;DHT22;7423;48.722;9.350;2023-01-15T10:59:42;10.50;99.90
14670;DHT22;7423;48.722;9.350;2023-01-15T11:05:15;10.50;99.90
14670;DHT22;7423;48.722;9.350;2023-01-15T11:07:47;10.40;99.90
14670;DHT22;7423;48.722;9.350;2023-01-15T11:10:36;10.50;99.90
14670;DHT22;7423;48.722;9.350;2023-01-15T11:13:21;10.60;99.90
14670;DHT22;7423;48.722;9.350;2023-01-15T11:16:21;10.50;99.90
14670;DHT22;7423;48.722;9.350;2023-01-15T11:19:26;10.30;99.90
14670;DHT22;7423;48.722;9.350;2023-01-15T11:22:12;10.30;99.90
14670;DHT22;7423;48.722;9.350;2023-01-15T11:24:53;9.80;99.90
14670;DHT22;7423;48.722;9.350;2023-01-15T11:27:27;9.60;99.90
14670;DHT22;7423;48.722;9.350;2023-01-15T11:29:59;9.70;99.90
14670;DHT22;7423;48.722;9.350;2023-01-15T11:34:58;9.30;99.90
14670;DHT22;7423;48.722;9.350;2023-01-15T11:37:30;9.20;99.90
14670;DHT22;7423;48.722;9.350;2023-01-15T11:39:59;9.30;99.90
14670;DHT22;7423;48.722;9.350;2023-01-15T11:42:32;9.30;99.90
14670;DHT22;7423;48.722;9.350;2023-01-15T11:45:19;9.40;99.90
14670;DHT22;7423;48.722;9.350;2023-01-15T11:48:14;9.50;99.90
14670;DHT22;7423;48.722;9.350;2023-01-15T11:51:13;9.40;99.90
14670;DHT22;7423;48.722;9.350;2023-01-15T11:53:49;9.30;99.90
14670;DHT22;7423;48.722;9.350;2023-01-15T11:56:19;9.40;99.90
14670;DHT22;7423;48.722;9.350;2023-01-15T11:59:01;9.20;99.90
14670;DHT22;7423;48.722;9.350;2023-01-15T12:01:36;9.30;99.90
14670;DHT22;7423;48.722;9.350;2023-01-15T12:04:35;9.40;99.90
14670;DHT22;7423;48.722;9.350;2023-01-15T12:07:05;9.30;99.90
14670;DHT22;7423;48.722;9.350;2023-01-15T12:10:01;9.40;99.90
14670;DHT22;7423;48.722;9.350;2023-01-15T12:12:41;9.40;99.90
14670;DHT22;7423;48.722;9.350;2023-01-15T12:15:24;9.20;99.90
14670;DHT22;7423;48.722;9.350;2023-01-15T12:18:20;9.00;99.90
14670;DHT22;7423;48.722;9.350;2023-01-15T12:21:34;9.10;99.90
14670;DHT22;7423;48.722;9.350;2023-01-15T12:24:26;9.30;99.90
14670;DHT22;7423;48.722;9.350;2023-01-15T12:30:20;9.20;99.90
14670;DHT22;7423;48.722;9.350;2023-01-15T12:35:47;9.10;99.90
14670;DHT22;7423;48.722;9.350;2023-01-15T12:41:43;9.20;99.90
14670;DHT22;7423;48.722;9.350;2023-01-15T12:44:39;9.20;99.90
14670;DHT22;7423;48.722;9.350;2023-01-15T12:47:47;9.10;99.90
14670;DHT22;7423;48.722;9.350;2023-01-15T12:56:00;9.20;99.90
14670;DHT22;7423;48.722;9.350;2023-01-15T12:58:42;9.20;99.90
14670;DHT22;7423;48.722;9.350;2023-01-15T13:01:49;9.10;99.90
14670;DHT22;7423;48.722;9.350;2023-01-15T13:04:43;9.00;99.90
14670;DHT22;7423;48.722;9.350;2023-01-15T13:07:19;9.10;99.90
14670;DHT22;7423;48.722;9.350;2023-01-15T13:12:45;8.80;99.90
14670;DHT22;7423;48.722;9.350;2023-01-15T13:15:17;8.80;99.90
14670;DHT22;7423;48.722;9.350;2023-01-15T13:17:53;8.80;99.90
14670;DHT22;7423;48.722;9.350;2023-01-15T13:20:43;8.70;99.90
14670;DHT22;7423;48.722;9.350;2023-01-15T13:26:15;8.60;99.90
14670;DHT22;7423;48.722;9.350;2023-01-15T13:29:04;8.30;99.90
14670;DHT22;7423;48.722;9.350;2023-01-15T13:34:32;8.40;99.90
14670;DHT22;7423;48.722;9.350;2023-01-15T13:37:30;8.60;99.90
14670;DHT22;7423;48.722;9.350;2023-01-15T13:40:08;8.70;99.90
14670;DHT22;7423;48.722;9.350;2023-01-15T13:42:45;8.70;99.90
14670;DHT22;7423;48.722;9.350;2023-01-15T13:47:47;8.80;99.90
14670;DHT22;7423;48.722;9.350;2023-01-15T13:50:18;8.80;99.90
14670;DHT22;7423;48.722;9.350;2023-01-15T13:53:00;8.60;99.90
14670;DHT22;7423;48.722;9.350;2023-01-15T13:55:33;8.60;99.90
14670;DHT22;7423;48.722;9.350;2023-01-15T13:58:16;8.60;99.90
14670;DHT22;7423;48.722;9.350;2023-01-15T14:06:46;8.30;99.90
14670;DHT22;7423;48.722;9.350;2023-01-15T14:15:28;8.50;99.90
14670;DHT22;7423;48.722;9.350;2023-01-15T14:30:50;9.10;99.90
14670;DHT22;7423;48.722;9.350;2023-01-15T14:36:23;9.10;99.90
14670;DHT22;7423;48.722;9.350;2023-01-15T14:38:56;9.10;99.90
14670;DHT22;7423;48.722;9.350;2023-01-15T14:41:30;9.10;99.90
14670;DHT22;7423;48.722;9.350;2023-01-15T14:44:00;9.20;99.90
14670;DHT22;7423;48.722;9.350;2023-01-15T14:46:33;9.00;99.90
14670;DHT22;7423;48.722;9.350;2023-01-15T14:49:00;9.20;99.90
14670;DHT22;7423;48.722;9.350;2023-01-15T14:51:33;9.40;99.90
14670;DHT22;7423;48.722;9.350;2023-01-15T14:54:16;9.60;99.90
14670;DHT22;7423;48.722;9.350;2023-01-15T14:56:51;9.70;99.90
14670;DHT22;7423;48.722;9.350;2023-01-15T14:59:31;9.80;99.90
14670;DHT22;7423;48.722;9.350;2023-01-15T15:02:30;9.90;99.90
14670;DHT22;7423;48.722;9.350;2023-01-15T15:05:01;9.90;99.90
14670;DHT22;7423;48.722;9.350;2023-01-15T15:07:38;9.90;99.90
14670;DHT22;7423;48.722;9.350;2023-01-15T15:10:32;9.80;99.90
14670;DHT22;7423;48.722;9.350;2023-01-15T15:13:14;9.90;99.90
14670;DHT22;7423;48.722;9.350;2023-01-15T15:18:56;10.10;99.90
14670;DHT22;7423;48.722;9.350;2023-01-15T15:21:30;9.90;99.90
14670;DHT22;7423;48.722;9.350;2023-01-15T15:24:19;9.90;99.90
14670;DHT22;7423;48.722;9.350;2023-01-15T15:26:50;9.60;99.90
14670;DHT22;7423;48.722;9.350;2023-01-15T15:29:18;9.30;99.90
14670;DHT22;7423;48.722;9.350;2023-01-15T15:31:55;9.40;99.90
14670;DHT22;7423;48.722;9.350;2023-01-15T15:37:03;9.70;99.90
14670;DHT22;7423;48.722;9.350;2023-01-15T15:39:51;9.60;99.90
14670;DHT22;7423;48.722;9.350;2023-01-15T15:42:30;9.50;99.90
14670;DHT22;7423;48.722;9.350;2023-01-15T15:45:25;9.50;99.90
14670;DHT22;7423;48.722;9.350;2023-01-15T15:48:13;9.40;99.90
14670;DHT22;7423;48.722;9.350;2023-01-15T15:51:03;9.50;99.90
14670;DHT22;7423;48.722;9.350;2023-01-15T15:53:31;9.60;99.90
14670;DHT22;7423;48.722;9.350;2023-01-15T15:55:59;9.70;99.90
14670;DHT22;7423;48.722;9.350;2023-01-15T15:58:33;9.50;99.90
14670;DHT22;7423;48.722;9.350;2023-01-15T16:01:01;9.50;99.90
14670;DHT22;7423;48.722;9.350;2023-01-15T16:03:30;9.40;99.90
14670;DHT22;7423;48.722;9.350;2023-01-15T16:06:06;9.50;99.90
14670;DHT22;7423;48.722;9.350;2023-01-15T16:08:34;9.30;99.90
14670;DHT22;7423;48.722;9.350;2023-01-15T16:11:07;9.40;99.90
14670;DHT22;7423;48.722;9.350;2023-01-15T16:13:45;9.40;99.90
14670;DHT22;7423;48.722;9.350;2023-01-15T16:16:14;9.40;99.90
14670;DHT22;7423;48.722;9.350;2023-01-15T16:18:48;9.40;99.90
14670;DHT22;7423;48.722;9.350;2023-01-15T16:21:36;9.20;99.90
14670;DHT22;7423;48.722;9.350;2023-01-15T16:24:08;9.10;99.90
14670;DHT22;7423;48.722;9.350;2023-01-15T16:26:57;9.20;99.90
14670;DHT22;7423;48.722;9.350;2023-01-15T16:29:29;8.60;99.90
14670;DHT22;7423;48.722;9.350;2023-01-15T16:31:57;8.50;99.90
14670;DHT22;7423;48.722;9.350;2023-01-15T16:34:28;8.70;99.90
14670;DHT22;7423;48.722;9.350;2023-01-15T16:36:57;8.70;99.90
14670;DHT22;7423;48.722;9.350;2023-01-15T16:39:29;8.60;99.90
14670;DHT22;7423;48.722;9.350;2023-01-15T16:42:00;8.60;99.90
14670;DHT22;7423;48.722;9.350;2023-01-15T16:44:55;8.60;99.90
14670;DHT22;7423;48.722;9.350;2023-01-15T16:47:31;8.60;99.90
14670;DHT22;7423;48.722;9.350;2023-01-15T16:58:16;8.80;99.90
14670;DHT22;7423;48.722;9.350;2023-01-15T17:00:55;8.80;99.90
14670;DHT22;7423;48.722;9.350;2023-01-15T17:03:24;8.70;99.90
14670;DHT22;7423;48.722;9.350;2023-01-15T17:05:58;8.60;99.90
14670;DHT22;7423;48.722;9.350;2023-01-15T17:08:30;8.80;99.90
14670;DHT22;7423;48.722;9.350;2023-01-15T17:10:59;8.80;99.90
14670;DHT22;7423;48.722;9.350;2023-01-15T17:16:17;8.90;99.90
14670;DHT22;7423;48.722;9.350;2023-01-15T17:18:47;8.80;99.90
14670;DHT22;7423;48.722;9.350;2023-01-15T17:21:17;8.80;99.90
14670;DHT22;7423;48.722;9.350;2023-01-15T17:23:47;8.90;99.90
14670;DHT22;7423;48.722;9.350;2023-01-15T17:26:19;9.00;99.90
14670;DHT22;7423;48.722;9.350;2023-01-15T17:28:47;9.10;99.90
14670;DHT22;7423;48.722;9.350;2023-01-15T17:33:51;9.10;99.90
14670;DHT22;7423;48.722;9.350;2023-01-15T17:36:19;9.00;99.90
14670;DHT22;7423;48.722;9.350;2023-01-15T17:38:46;9.00;99.90
14670;DHT22;7423;48.722;9.350;2023-01-15T17:41:15;8.90;99.90
14670;DHT22;7423;48.722;9.350;2023-01-15T17:43:43;8.70;99.90
14670;DHT22;7423;48.722;9.350;2023-01-15T17:46:10;8.40;99.90
14670;DHT22;7423;48.722;9.350;2023-01-15T17:48:37;8.60;99.90
14670;DHT22;7423;48.722;9.350;2023-01-15T17:51:10;8.80;99.90
14670;DHT22;7423;48.722;9.350;2023-01-15T17:53:38;8.60;99.90
14670;DHT22;7423;48.722;9.350;2023-01-15T17:56:05;8.60;99.90
14670;DHT22;7423;48.722;9.350;2023-01-15T17:58:51;8.50;99.90
14670;DHT22;7423;48.722;9.350;2023-01-15T18:01:41;8.50;99.90
14670;DHT22;7423;48.722;9.350;2023-01-15T18:04:39;8.50;99.90
14670;DHT22;7423;48.722;9.350;2023-01-15T18:07:33;8.60;99.90
14670;DHT22;7423;48.722;9.350;2023-01-15T18:10:06;8.50;99.90
14670;DHT22;7423;48.722;9.350;2023-01-15T18:12:35;8.40;99.90
14670;DHT22;7423;48.722;9.350;2023-01-15T18:15:02;8.60;99.90
14670;DHT22;7423;48.722;9.350;2023-01-15T18:17:28;8.70;99.90
14670;DHT22;7423;48.722;9.350;2023-01-15T18:19:57;8.60;99.90
14670;DHT22;7423;48.722;9.350;2023-01-15T18:22:23;8.50;99.90
14670;DHT22;7423;48.722;9.350;2023-01-15T18:24:50;8.50;99.90
14670;DHT22;7423;48.722;9.350;2023-01-15T18:27:17;8.40;99.90
14670;DHT22;7423;48.722;9.350;2023-01-15T18:29:44;8.50;99.90
14670;DHT22;7423;48.722;9.350;2023-01-15T18:32:11;8.20;99.90